Time;durP1;ratioP1;P1;durP2;ratioP2;P2;SDS_P1;SDS_P2;PMS_P1;PMS_P2;Temp;Humidity;BMP_temperature;BMP_pressure;BME280_temperature;BME280_humidity;BME280_pressure;Samples;Min_cycle;Max_cycle;Signal;HPM_P1;HPM_P2
2021/11/25 00:01:22;;;;;;;14.90;7.35;;;;;;;;;;5055526;28;20025;-56
2021/11/25 00:03:48;;;;;;;12.73;6.40;;;;;;;;;;5053844;28;20078;-56
2021/11/25 00:06:15;;;;;;;12.43;6.32;;;;;;;;;;5047910;28;20404;-55
2021/11/25 00:08:41;;;;;;;14.07;6.57;;;;;;;;;;5050627;28;20381;-51
2021/11/25 00:11:07;;;;;;;10.75;5.15;;;;;;;;;;5056125;28;20396;-55
2021/11/25 00:13:33;;;;;;;10.52;5.50;;;;;;;;;;5055902;28;20025;-56
2021/11/25 00:15:59;;;;;;;12.70;5.40;;;;;;;;;;5049689;28;20025;-56
2021/11/25 00:18:25;;;;;;;10.77;5.68;;;;;;;;;;5053289;28;20112;-54
2021/11/25 00:20:53;;;;;;;10.18;5.10;;;;;;;;;;5050427;28;20067;-53
2021/11/25 00:23:19;;;;;;;8.07;4.30;;;;;;;;;;5055262;28;20380;-52
2021/11/25 00:25:45;;;;;;;8.15;4.38;;;;;;;;;;5051198;28;20033;-54
2021/11/25 00:28:10;;;;;;;7.53;3.78;;;;;;;;;;5054826;28;20032;-56
2021/11/25 00:30:37;;;;;;;9.02;4.00;;;;;;;;;;5050380;28;20064;-56
2021/11/25 00:33:03;;;;;;;9.00;3.92;;;;;;;;;;5060594;28;20040;-57
2021/11/25 00:35:29;;;;;;;7.53;4.22;;;;;;;;;;5051276;28;20099;-53
2021/11/25 00:37:56;;;;;;;6.63;3.72;;;;;;;;;;5040240;28;20060;-56
2021/11/25 00:40:22;;;;;;;8.23;4.05;;;;;;;;;;5052710;28;20056;-55
2021/11/25 00:42:48;;;;;;;8.95;3.83;;;;;;;;;;5060398;28;20056;-56
2021/11/25 00:45:15;;;;;;;6.47;3.80;;;;;;;;;;5054380;28;20477;-54
2021/11/25 00:47:41;;;;;;;7.40;3.95;;;;;;;;;;5053884;28;20473;-57
2021/11/25 00:50:09;;;;;;;6.93;3.75;;;;;;;;;;5051847;28;20090;-55
2021/11/25 00:52:35;;;;;;;7.43;3.97;;;;;;;;;;5055772;28;20025;-54
2021/11/25 00:55:01;;;;;;;6.88;3.72;;;;;;;;;;5046989;28;20048;-53
2021/11/25 00:57:27;;;;;;;7.10;3.90;;;;;;;;;;5051274;28;20116;-57
2021/11/25 00:59:53;;;;;;;8.75;3.47;;;;;;;;;;5054048;28;20037;-53
2021/11/25 01:02:20;;;;;;;8.13;3.83;;;;;;;;;;5047971;28;20036;-53
2021/11/25 01:04:46;;;;;;;6.70;2.80;;;;;;;;;;5041176;28;20507;-51
2021/11/25 01:07:12;;;;;;;8.50;3.97;;;;;;;;;;5048724;28;20454;-53
2021/11/25 01:09:38;;;;;;;7.45;3.42;;;;;;;;;;5047852;28;20499;-55
2021/11/25 01:12:05;;;;;;;5.78;3.40;;;;;;;;;;5052208;28;20108;-56
2021/11/25 01:14:31;;;;;;;7.50;3.88;;;;;;;;;;5055626;28;20028;-54
2021/11/25 01:16:57;;;;;;;5.28;2.95;;;;;;;;;;5055170;28;20380;-56
2021/11/25 01:19:24;;;;;;;6.20;3.50;;;;;;;;;;5049791;28;20109;-54
2021/11/25 01:21:50;;;;;;;6.97;4.15;;;;;;;;;;5057367;28;20372;-52
2021/11/25 01:24:16;;;;;;;6.68;3.25;;;;;;;;;;5055824;28;20051;-52
2021/11/25 01:26:42;;;;;;;6.63;3.10;;;;;;;;;;5049990;28;20037;-56
2021/11/25 01:29:08;;;;;;;6.40;3.42;;;;;;;;;;5049309;28;20115;-57
2021/11/25 01:31:34;;;;;;;6.32;3.13;;;;;;;;;;5045172;28;20036;-57
2021/11/25 01:34:00;;;;;;;5.13;2.88;;;;;;;;;;5056127;28;20806;-55
2021/11/25 01:36:26;;;;;;;6.45;3.03;;;;;;;;;;5047035;28;20034;-57
2021/11/25 01:38:52;;;;;;;5.45;2.83;;;;;;;;;;5056920;28;20358;-55
2021/11/25 01:41:20;;;;;;;6.63;3.60;;;;;;;;;;5049664;28;20143;-54
2021/11/25 01:43:45;;;;;;;5.22;2.53;;;;;;;;;;5058918;28;20036;-56
2021/11/25 01:46:13;;;;;;;6.38;3.22;;;;;;;;;;5052058;28;20086;-57
2021/11/25 01:48:39;;;;;;;5.50;3.13;;;;;;;;;;5056391;28;20043;-54
2021/11/25 01:51:06;;;;;;;5.07;2.80;;;;;;;;;;5047174;28;20103;-56
2021/11/25 01:53:32;;;;;;;7.47;3.00;;;;;;;;;;5050448;28;20067;-53
2021/11/25 01:55:58;;;;;;;5.65;3.33;;;;;;;;;;5050451;28;20111;-53
2021/11/25 01:58:24;;;;;;;6.10;3.08;;;;;;;;;;5051393;28;20028;-53
2021/11/25 02:00:52;;;;;;;6.07;3.20;;;;;;;;;;5052209;28;20067;-54
2021/11/25 02:03:18;;;;;;;5.28;3.25;;;;;;;;;;5051615;28;20495;-54
2021/11/25 02:05:45;;;;;;;5.13;3.33;;;;;;;;;;5048232;28;20060;-53
2021/11/25 02:08:11;;;;;;;6.35;3.33;;;;;;;;;;5045932;28;20063;-54
2021/11/25 02:10:38;;;;;;;5.55;3.80;;;;;;;;;;5045842;28;20029;-56
2021/11/25 02:13:05;;;;;;;7.15;4.22;;;;;;;;;;5052118;28;20101;-55
2021/11/25 02:15:35;;;;;;;8.32;4.72;;;;;;;;;;5058320;28;20075;-51
2021/11/25 02:18:08;;;;;;;5.72;3.90;;;;;;;;;;5044491;28;20389;-57
2021/11/25 02:20:34;;;;;;;;;;;;;;;;;;5047362;28;20350;-54
2021/11/25 02:23:01;;;;;;;7.18;4.13;;;;;;;;;;5051762;28;19915;-55
2021/11/25 02:25:27;;;;;;;7.45;4.53;;;;;;;;;;5050017;28;20074;-54
2021/11/25 02:27:53;;;;;;;7.82;4.88;;;;;;;;;;5051294;28;20037;-56
2021/11/25 02:30:19;;;;;;;10.50;5.40;;;;;;;;;;5039495;28;20116;-55
2021/11/25 02:32:46;;;;;;;9.25;5.43;;;;;;;;;;5054885;28;20230;-57
2021/11/25 02:35:19;;;;;;;7.80;4.82;;;;;;;;;;5050414;28;20100;-54
2021/11/25 02:37:46;;;;;;;8.35;5.40;;;;;;;;;;5041749;28;20041;-57
2021/11/25 02:40:17;;;;;;;7.43;4.90;;;;;;;;;;5049231;28;20575;-56
2021/11/25 02:42:44;;;;;;;10.70;5.68;;;;;;;;;;5049287;28;20106;-51
2021/11/25 02:45:10;;;;;;;9.65;5.30;;;;;;;;;;5046490;28;20017;-55
2021/11/25 02:47:36;;;;;;;10.55;6.15;;;;;;;;;;5044392;28;20029;-56
2021/11/25 02:50:02;;;;;;;9.15;5.43;;;;;;;;;;5039229;28;20100;-54
2021/11/25 02:52:28;;;;;;;9.48;6.18;;;;;;;;;;5048800;28;20044;-57
2021/11/25 02:54:54;;;;;;;10.32;6.18;;;;;;;;;;5045542;28;20099;-56
2021/11/25 02:57:20;;;;;;;11.02;5.90;;;;;;;;;;5039854;28;20397;-55
2021/11/25 02:59:46;;;;;;;11.52;6.45;;;;;;;;;;5038676;28;20037;-56
2021/11/25 03:02:12;;;;;;;13.20;6.30;;;;;;;;;;5055726;28;20029;-54
2021/11/25 03:04:38;;;;;;;12.52;7.03;;;;;;;;;;5043890;28;20512;-56
2021/11/25 03:07:04;;;;;;;14.57;7.57;;;;;;;;;;5039714;28;20079;-54
2021/11/25 03:09:30;;;;;;;13.75;8.00;;;;;;;;;;5052305;28;20091;-54
2021/11/25 03:11:56;;;;;;;15.02;7.35;;;;;;;;;;5046910;28;20057;-54
2021/11/25 03:14:22;;;;;;;12.07;7.05;;;;;;;;;;5055486;28;20074;-53
2021/11/25 03:16:48;;;;;;;13.18;7.25;;;;;;;;;;5050761;28;20028;-54
2021/11/25 03:19:14;;;;;;;11.82;7.13;;;;;;;;;;5049444;28;20534;-56
2021/11/25 03:21:40;;;;;;;14.25;7.47;;;;;;;;;;5043122;28;20025;-55
2021/11/25 03:24:06;;;;;;;13.40;7.70;;;;;;;;;;5047128;28;20392;-54
2021/11/25 03:26:33;;;;;;;15.07;8.73;;;;;;;;;;5044116;28;20028;-53
2021/11/25 03:29:00;;;;;;;12.55;7.88;;;;;;;;;;5043381;28;20075;-53
2021/11/25 03:31:27;;;;;;;13.32;7.93;;;;;;;;;;5047080;28;20033;-57
2021/11/25 03:33:54;;;;;;;14.10;8.05;;;;;;;;;;5052050;28;20123;-56
2021/11/25 03:36:20;;;;;;;14.43;8.23;;;;;;;;;;5044209;28;20047;-56
2021/11/25 03:38:46;;;;;;;18.58;9.43;;;;;;;;;;5048576;28;20099;-52
2021/11/25 03:41:14;;;;;;;16.80;8.80;;;;;;;;;;5049188;28;20040;-53
2021/11/25 03:43:40;;;;;;;15.10;8.77;;;;;;;;;;5048548;28;20469;-54
2021/11/25 03:46:06;;;;;;;15.38;8.82;;;;;;;;;;5050986;28;20029;-56
2021/11/25 03:48:33;;;;;;;14.90;8.30;;;;;;;;;;5056152;28;20151;-52
2021/11/25 03:51:00;;;;;;;18.35;8.55;;;;;;;;;;5046328;28;20049;-54
2021/11/25 03:53:26;;;;;;;16.00;8.63;;;;;;;;;;5052774;28;20156;-53
2021/11/25 03:55:53;;;;;;;17.25;9.30;;;;;;;;;;5050625;28;20112;-55
2021/11/25 03:58:19;;;;;;;14.68;8.23;;;;;;;;;;5057406;28;20043;-55
2021/11/25 04:00:45;;;;;;;16.92;9.07;;;;;;;;;;5040202;28;20058;-53
2021/11/25 04:03:11;;;;;;;16.65;8.77;;;;;;;;;;5043889;28;20448;-54
2021/11/25 04:05:37;;;;;;;15.70;9.35;;;;;;;;;;5048115;28;20056;-57
2021/11/25 04:08:04;;;;;;;19.60;9.80;;;;;;;;;;5042166;28;20068;-56
2021/11/25 04:10:30;;;;;;;19.67;9.60;;;;;;;;;;5042529;28;20033;-56
2021/11/25 04:12:56;;;;;;;16.65;9.65;;;;;;;;;;5040824;28;20731;-53
2021/11/25 04:15:22;;;;;;;19.63;9.77;;;;;;;;;;5050272;28;20036;-55
2021/11/25 04:17:48;;;;;;;18.35;9.68;;;;;;;;;;5047808;28;20067;-57
2021/11/25 04:20:15;;;;;;;19.73;10.95;;;;;;;;;;5037289;28;20521;-57
2021/11/25 04:22:41;;;;;;;20.30;10.68;;;;;;;;;;5046009;28;20041;-53
2021/11/25 04:25:08;;;;;;;20.15;11.23;;;;;;;;;;5034915;28;20112;-56
2021/11/25 04:27:34;;;;;;;18.73;9.63;;;;;;;;;;5047822;28;20025;-53
2021/11/25 04:30:11;;;;;;;17.90;10.27;;;;;;;;;;5048403;28;20021;-53
2021/11/25 04:35:32;;;;;;;18.25;10.02;;;;;;;;;;5043894;28;20457;-53
2021/11/25 04:38:02;;;;;;;18.67;10.52;;;;;;;;;;5050088;28;20507;-54
2021/11/25 04:40:29;;;;;;;19.77;10.82;;;;;;;;;;5047572;28;20128;-53
2021/11/25 04:42:55;;;;;;;17.83;10.25;;;;;;;;;;5051126;28;20099;-55
2021/11/25 04:45:21;;;;;;;22.10;11.77;;;;;;;;;;5048152;28;20040;-56
2021/11/25 04:47:47;;;;;;;21.77;11.70;;;;;;;;;;5040100;28;20354;-53
2021/11/25 04:50:13;;;;;;;21.30;11.07;;;;;;;;;;5046899;28;20025;-56
2021/11/25 04:52:39;;;;;;;21.92;11.27;;;;;;;;;;5049464;28;20033;-56
2021/11/25 04:55:05;;;;;;;21.15;10.85;;;;;;;;;;5050417;28;20037;-55
2021/11/25 04:57:31;;;;;;;22.90;11.63;;;;;;;;;;5052447;28;20412;-54
2021/11/25 04:59:57;;;;;;;24.77;11.57;;;;;;;;;;5048757;28;20029;-55
2021/11/25 05:02:23;;;;;;;24.02;12.05;;;;;;;;;;5052860;28;20438;-56
2021/11/25 05:04:49;;;;;;;24.70;12.00;;;;;;;;;;5049780;28;20029;-57
2021/11/25 05:07:15;;;;;;;22.95;11.80;;;;;;;;;;5052409;28;20025;-55
2021/11/25 05:09:41;;;;;;;25.20;11.95;;;;;;;;;;5050029;28;20036;-56
2021/11/25 05:12:07;;;;;;;24.58;12.20;;;;;;;;;;5056361;28;20021;-57
2021/11/25 05:14:33;;;;;;;25.88;11.98;;;;;;;;;;5053315;28;20032;-57
2021/11/25 05:16:59;;;;;;;27.90;11.48;;;;;;;;;;5050135;28;20094;-55
2021/11/25 05:19:25;;;;;;;26.98;13.15;;;;;;;;;;5051385;28;20031;-58
2021/11/25 05:21:51;;;;;;;29.05;15.63;;;;;;;;;;5055600;28;20100;-56
2021/11/25 05:24:18;;;;;;;20.50;11.68;;;;;;;;;;5055687;28;20503;-57
2021/11/25 05:26:45;;;;;;;27.27;14.98;;;;;;;;;;5053813;28;20395;-57
2021/11/25 05:29:11;;;;;;;25.27;12.20;;;;;;;;;;5053569;28;20033;-56
2021/11/25 05:31:37;;;;;;;22.25;10.93;;;;;;;;;;5052866;28;20033;-58
2021/11/25 05:34:03;;;;;;;23.08;12.30;;;;;;;;;;5050134;28;20055;-58
2021/11/25 05:36:29;;;;;;;23.00;11.82;;;;;;;;;;5052484;28;20493;-56
2021/11/25 05:38:55;;;;;;;20.77;11.15;;;;;;;;;;5058202;28;20029;-57
2021/11/25 05:41:21;;;;;;;23.65;12.05;;;;;;;;;;5050453;28;20029;-57
2021/11/25 05:43:47;;;;;;;23.15;12.20;;;;;;;;;;5060794;28;20056;-55
2021/11/25 05:46:13;;;;;;;24.08;12.80;;;;;;;;;;5055170;28;20420;-58
2021/11/25 05:48:39;;;;;;;70.20;38.45;;;;;;;;;;5049141;28;20060;-57
2021/11/25 05:51:05;;;;;;;34.35;19.35;;;;;;;;;;5049028;28;20025;-58
2021/11/25 05:53:31;;;;;;;34.15;21.08;;;;;;;;;;5051291;28;20106;-57
2021/11/25 05:55:56;;;;;;;33.47;18.42;;;;;;;;;;5047110;28;20037;-58
2021/11/25 05:58:22;;;;;;;23.40;12.02;;;;;;;;;;5047396;28;20129;-57
2021/11/25 06:00:49;;;;;;;24.40;12.88;;;;;;;;;;5052631;28;20030;-58
2021/11/25 06:03:15;;;;;;;23.58;12.50;;;;;;;;;;5043529;28;20433;-58
2021/11/25 06:05:41;;;;;;;24.25;12.55;;;;;;;;;;5039950;28;20063;-57
2021/11/25 06:08:07;;;;;;;25.00;13.30;;;;;;;;;;5045980;28;20512;-56
2021/11/25 06:10:33;;;;;;;21.95;12.65;;;;;;;;;;5051963;28;20125;-58
2021/11/25 06:12:59;;;;;;;24.17;12.35;;;;;;;;;;5051764;28;20103;-58
2021/11/25 06:15:25;;;;;;;28.45;13.68;;;;;;;;;;5052055;28;20044;-56
2021/11/25 06:17:52;;;;;;;25.40;12.55;;;;;;;;;;5046027;28;20025;-57
2021/11/25 06:20:18;;;;;;;26.85;12.10;;;;;;;;;;5046745;28;20143;-56
2021/11/25 06:22:46;;;;;;;25.55;13.18;;;;;;;;;;5043124;28;20025;-57
2021/11/25 06:25:13;;;;;;;23.23;12.60;;;;;;;;;;5050862;28;20139;-54
2021/11/25 06:27:39;;;;;;;27.05;13.07;;;;;;;;;;5051418;28;20112;-58
2021/11/25 06:30:07;;;;;;;24.20;12.32;;;;;;;;;;5050651;28;20063;-57
2021/11/25 06:32:33;;;;;;;21.38;12.07;;;;;;;;;;5053995;28;20078;-55
2021/11/25 06:35:00;;;;;;;24.75;12.43;;;;;;;;;;5050892;28;20452;-58
2021/11/25 06:37:26;;;;;;;29.50;13.02;;;;;;;;;;5040966;28;20447;-57
2021/11/25 06:39:51;;;;;;;26.25;12.93;;;;;;;;;;5040848;28;20032;-56
2021/11/25 06:42:17;;;;;;;22.63;12.40;;;;;;;;;;5045300;28;20405;-58
2021/11/25 06:44:43;;;;;;;22.70;12.80;;;;;;;;;;5053079;28;20025;-55
2021/11/25 06:47:09;;;;;;;25.63;12.77;;;;;;;;;;5052100;28;20033;-58
2021/11/25 06:49:35;;;;;;;25.05;12.43;;;;;;;;;;5053609;28;20021;-58
2021/11/25 06:52:02;;;;;;;26.05;13.18;;;;;;;;;;5053874;28;20040;-55
2021/11/25 06:54:28;;;;;;;32.92;15.60;;;;;;;;;;5052414;28;20098;-57
2021/11/25 06:56:54;;;;;;;27.88;14.35;;;;;;;;;;5044016;28;20037;-56
2021/11/25 06:59:20;;;;;;;24.65;13.20;;;;;;;;;;5052928;28;20630;-58
2021/11/25 07:01:46;;;;;;;23.70;12.68;;;;;;;;;;5045918;28;20037;-57
2021/11/25 07:04:13;;;;;;;25.98;13.50;;;;;;;;;;5061535;28;20488;-57
2021/11/25 07:06:39;;;;;;;25.65;12.15;;;;;;;;;;5058428;28;20032;-55
2021/11/25 07:09:05;;;;;;;26.40;13.10;;;;;;;;;;5064043;28;20123;-56
2021/11/25 07:11:31;;;;;;;25.58;13.20;;;;;;;;;;5063057;28;20024;-54
2021/11/25 07:13:57;;;;;;;24.00;12.88;;;;;;;;;;5051285;28;20186;-52
2021/11/25 07:16:23;;;;;;;27.00;12.98;;;;;;;;;;5056368;28;20161;-58
2021/11/25 07:18:50;;;;;;;25.02;13.57;;;;;;;;;;5050177;28;20051;-56
2021/11/25 07:21:16;;;;;;;26.85;13.68;;;;;;;;;;5055241;28;20028;-57
2021/11/25 07:23:42;;;;;;;24.33;13.40;;;;;;;;;;5054085;28;20029;-57
2021/11/25 07:26:08;;;;;;;26.15;13.10;;;;;;;;;;5043004;28;20082;-55
2021/11/25 07:28:35;;;;;;;25.52;12.02;;;;;;;;;;5048341;28;20044;-55
2021/11/25 07:31:01;;;;;;;22.98;12.43;;;;;;;;;;5054395;28;20449;-56
2021/11/25 07:33:27;;;;;;;28.52;14.05;;;;;;;;;;5048535;28;20044;-57
2021/11/25 07:35:53;;;;;;;25.17;12.52;;;;;;;;;;5053354;28;20489;-57
2021/11/25 07:38:19;;;;;;;24.45;12.38;;;;;;;;;;5053121;28;20147;-56
2021/11/25 07:40:48;;;;;;;24.00;12.52;;;;;;;;;;5053551;28;20180;-56
2021/11/25 07:43:14;;;;;;;26.50;13.10;;;;;;;;;;5052382;28;20033;-58
2021/11/25 07:45:40;;;;;;;23.80;12.07;;;;;;;;;;5049944;28;20112;-58
2021/11/25 07:48:06;;;;;;;25.50;12.40;;;;;;;;;;5056165;28;20037;-57
2021/11/25 07:50:32;;;;;;;24.65;12.55;;;;;;;;;;5057316;28;20044;-58
2021/11/25 07:52:59;;;;;;;21.65;11.70;;;;;;;;;;5054929;28;20120;-58
2021/11/25 07:55:25;;;;;;;22.35;11.10;;;;;;;;;;5047555;28;20024;-58
2021/11/25 07:57:51;;;;;;;22.08;11.65;;;;;;;;;;5056837;28;20111;-57
2021/11/25 08:00:21;;;;;;;23.38;12.55;;;;;;;;;;5053240;28;20064;-57
2021/11/25 08:02:47;;;;;;;24.67;13.38;;;;;;;;;;5054680;28;20539;-56
2021/11/25 08:05:13;;;;;;;22.50;12.13;;;;;;;;;;5052491;28;20029;-57
2021/11/25 08:07:40;;;;;;;25.33;12.18;;;;;;;;;;5049104;28;20044;-57
2021/11/25 08:10:07;;;;;;;24.08;13.20;;;;;;;;;;5047184;28;20032;-56
2021/11/25 08:12:33;;;;;;;25.92;12.35;;;;;;;;;;5051121;28;20099;-56
2021/11/25 08:14:59;;;;;;;24.52;12.10;;;;;;;;;;5054944;28;20449;-58
2021/11/25 08:17:25;;;;;;;25.42;12.40;;;;;;;;;;5049671;28;20033;-55
2021/11/25 08:19:51;;;;;;;25.55;10.98;;;;;;;;;;5047907;28;20716;-56
2021/11/25 08:22:17;;;;;;;23.70;11.80;;;;;;;;;;5043326;28;20029;-58
2021/11/25 08:24:43;;;;;;;25.70;12.90;;;;;;;;;;5056094;28;20018;-56
2021/11/25 08:27:10;;;;;;;25.33;11.68;;;;;;;;;;5050246;28;20090;-56
2021/11/25 08:29:36;;;;;;;26.80;13.50;;;;;;;;;;5052810;28;20033;-57
2021/11/25 08:32:03;;;;;;;25.30;12.57;;;;;;;;;;5056563;28;20615;-56
2021/11/25 08:34:30;;;;;;;25.05;12.70;;;;;;;;;;5058547;28;20131;-56
2021/11/25 08:36:56;;;;;;;25.48;12.75;;;;;;;;;;5056497;28;20085;-57
2021/11/25 08:39:22;;;;;;;22.48;11.88;;;;;;;;;;5055807;28;20068;-55
2021/11/25 08:41:48;;;;;;;22.77;11.85;;;;;;;;;;5044028;28;20442;-55
2021/11/25 08:44:14;;;;;;;22.38;12.00;;;;;;;;;;5061226;28;20029;-58
2021/11/25 08:46:40;;;;;;;25.42;13.05;;;;;;;;;;5055684;28;20107;-58
2021/11/25 08:49:06;;;;;;;25.15;12.32;;;;;;;;;;5061416;28;20037;-57
2021/11/25 08:51:32;;;;;;;21.25;12.57;;;;;;;;;;5055118;28;20133;-58
2021/11/25 08:54:02;;;;;;;23.55;12.38;;;;;;;;;;5058307;28;20647;-58
2021/11/25 08:56:28;;;;;;;21.60;11.50;;;;;;;;;;5057919;28;20033;-57
2021/11/25 08:58:55;;;;;;;24.73;12.52;;;;;;;;;;5061627;28;20028;-58
2021/11/25 09:01:21;;;;;;;23.77;12.95;;;;;;;;;;5049571;28;20040;-57
2021/11/25 09:03:47;;;;;;;23.45;12.55;;;;;;;;;;5062991;28;20380;-58
2021/11/25 09:06:13;;;;;;;24.60;11.52;;;;;;;;;;5061355;28;20032;-58
2021/11/25 09:08:40;;;;;;;21.15;11.60;;;;;;;;;;5061560;28;20082;-56
2021/11/25 09:11:06;;;;;;;23.23;10.93;;;;;;;;;;5052832;28;20083;-58
2021/11/25 09:13:32;;;;;;;23.23;11.88;;;;;;;;;;5051221;28;20563;-57
2021/11/25 09:15:58;;;;;;;20.60;11.65;;;;;;;;;;5058544;28;20051;-55
2021/11/25 09:18:24;;;;;;;25.50;12.18;;;;;;;;;;5062423;28;20031;-56
2021/11/25 09:20:50;;;;;;;23.00;11.98;;;;;;;;;;5056480;28;20028;-55
2021/11/25 09:23:17;;;;;;;24.33;12.45;;;;;;;;;;5047370;28;20044;-56
2021/11/25 09:25:44;;;;;;;24.45;11.77;;;;;;;;;;5055407;28;20134;-57
2021/11/25 09:28:14;;;;;;;23.08;11.68;;;;;;;;;;5045890;28;20484;-56
2021/11/25 09:30:40;;;;;;;26.38;12.50;;;;;;;;;;5055246;28;20108;-54
2021/11/25 09:33:06;;;;;;;28.70;13.73;;;;;;;;;;5048939;28;20117;-55
2021/11/25 09:35:32;;;;;;;21.83;11.63;;;;;;;;;;5049900;28;20033;-57
2021/11/25 09:37:59;;;;;;;21.52;12.10;;;;;;;;;;5051511;28;20108;-58
2021/11/25 09:40:28;;;;;;;22.92;12.02;;;;;;;;;;5057042;28;20075;-58
2021/11/25 09:43:01;;;;;;;26.20;12.50;;;;;;;;;;5057026;28;20028;-57
2021/11/25 09:45:28;;;;;;;23.38;11.80;;;;;;;;;;5052001;28;20063;-58
2021/11/25 09:47:55;;;;;;;28.05;12.55;;;;;;;;;;5054575;28;20041;-58
2021/11/25 09:50:23;;;;;;;24.77;12.63;;;;;;;;;;5058445;28;20028;-54
2021/11/25 09:52:51;;;;;;;25.58;12.80;;;;;;;;;;5055559;28;20035;-56
2021/11/25 09:55:16;;;;;;;23.27;12.63;;;;;;;;;;5053912;28;20111;-58
2021/11/25 09:57:43;;;;;;;24.50;12.57;;;;;;;;;;5050335;28;20060;-58
2021/11/25 10:00:10;;;;;;;24.83;12.32;;;;;;;;;;5045188;28;20029;-56
2021/11/25 10:02:36;;;;;;;23.88;11.65;;;;;;;;;;5050097;28;20053;-58
2021/11/25 10:05:02;;;;;;;23.45;11.35;;;;;;;;;;5057138;28;20476;-58
2021/11/25 10:07:30;;;;;;;21.35;10.98;;;;;;;;;;5049748;28;20032;-56
2021/11/25 10:09:56;;;;;;;23.65;11.70;;;;;;;;;;5046720;28;20115;-58
2021/11/25 10:12:35;;;;;;;18.48;10.27;;;;;;;;;;5045395;28;20040;-55
2021/11/25 10:15:21;;;;;;;23.80;12.27;;;;;;;;;;5052906;28;20021;-56
2021/11/25 10:17:49;;;;;;;22.20;11.93;;;;;;;;;;5053573;28;20037;-58
2021/11/25 10:20:18;;;;;;;21.00;11.10;;;;;;;;;;5054519;28;20335;-54
2021/11/25 10:23:03;;;;;;;22.15;11.43;;;;;;;;;;5047416;28;20098;-56
2021/11/25 10:25:49;;;;;;;22.13;10.88;;;;;;;;;;5047448;28;20032;-58
2021/11/25 10:28:18;;;;;;;21.83;11.45;;;;;;;;;;5055236;28;20029;-57
2021/11/25 10:30:44;;;;;;;20.55;11.25;;;;;;;;;;5055284;28;20095;-58
2021/11/25 10:33:10;;;;;;;23.33;11.43;;;;;;;;;;5054038;28;20037;-58
2021/11/25 10:38:45;;;;;;;22.83;12.15;;;;;;;;;;5046974;28;20457;-58
2021/11/25 10:41:14;;;;;;;26.60;12.63;;;;;;;;;;5057288;28;20026;-57
2021/11/25 10:43:41;;;;;;;26.40;12.32;;;;;;;;;;5052295;28;20037;-58
2021/11/25 10:46:07;;;;;;;22.80;12.65;;;;;;;;;;5054800;28;20358;-58
2021/11/25 10:48:39;;;;;;;26.40;13.38;;;;;;;;;;5046720;28;20029;-57
2021/11/25 10:51:23;;;;;;;26.45;12.85;;;;;;;;;;5047565;28;20075;-58
2021/11/25 10:54:10;;;;;;;27.02;13.05;;;;;;;;;;5059472;28;20108;-55
2021/11/25 10:56:47;;;;;;;25.98;12.57;;;;;;;;;;5048543;28;20063;-56
2021/11/25 10:59:14;;;;;;;25.42;13.27;;;;;;;;;;5053188;28;20033;-58
2021/11/25 11:01:44;;;;;;;23.38;12.77;;;;;;;;;;5048473;28;20029;-56
2021/11/25 11:04:11;;;;;;;25.95;13.75;;;;;;;;;;5054303;28;20110;-55
2021/11/25 11:06:39;;;;;;;30.88;13.70;;;;;;;;;;5059482;28;20060;-58
2021/11/25 11:09:06;;;;;;;26.70;13.70;;;;;;;;;;5053372;28;20021;-56
2021/11/25 11:11:35;;;;;;;26.80;11.80;;;;;;;;;;5053077;28;20114;-58
2021/11/25 11:19:15;;;;;;;26.23;13.10;;;;;;;;;;5054687;28;20492;-58
2021/11/25 11:21:42;;;;;;;25.92;12.65;;;;;;;;;;5051499;28;20515;-58
2021/11/25 11:24:16;;;;;;;28.23;13.32;;;;;;;;;;5053211;28;20361;-58
2021/11/25 11:26:47;;;;;;;25.58;13.68;;;;;;;;;;5043544;28;20116;-58
2021/11/25 11:29:14;;;;;;;31.00;14.05;;;;;;;;;;5051648;28;20039;-58
2021/11/25 11:31:41;;;;;;;25.25;12.55;;;;;;;;;;5057591;28;20028;-55
2021/11/25 11:34:09;;;;;;;21.63;12.18;;;;;;;;;;5055094;28;20052;-57
2021/11/25 11:36:37;;;;;;;26.83;13.50;;;;;;;;;;5056491;28;20887;-57
2021/11/25 11:39:04;;;;;;;27.23;12.43;;;;;;;;;;5061031;28;20111;-58
2021/11/25 11:41:31;;;;;;;27.63;13.50;;;;;;;;;;5056713;28;20124;-58
2021/11/25 11:43:58;;;;;;;28.73;13.80;;;;;;;;;;5056937;28;20026;-58
2021/11/25 11:46:25;;;;;;;27.98;13.25;;;;;;;;;;5054654;28;20108;-58
2021/11/25 11:48:52;;;;;;;26.27;13.63;;;;;;;;;;5053030;28;20040;-56
2021/11/25 11:51:19;;;;;;;28.65;13.23;;;;;;;;;;5054236;28;20056;-57
2021/11/25 11:53:46;;;;;;;27.75;13.63;;;;;;;;;;5065893;28;20051;-58
2021/11/25 11:56:13;;;;;;;28.83;14.88;;;;;;;;;;5062011;28;20021;-57
2021/11/25 11:58:42;;;;;;;26.92;14.00;;;;;;;;;;5057897;28;20032;-58
2021/11/25 12:01:19;;;;;;;27.55;14.23;;;;;;;;;;5058501;28;20104;-55
2021/11/25 12:03:47;;;;;;;27.52;12.70;;;;;;;;;;5061874;28;20537;-58
2021/11/25 12:06:28;;;;;;;24.98;13.32;;;;;;;;;;5063581;28;20024;-56
2021/11/25 12:08:54;;;;;;;25.67;13.55;;;;;;;;;;5058968;28;20033;-57
2021/11/25 12:11:21;;;;;;;28.08;14.38;;;;;;;;;;5060181;28;20369;-56
2021/11/25 12:13:49;;;;;;;27.08;13.57;;;;;;;;;;5060425;28;20029;-55
2021/11/25 12:16:21;;;;;;;24.17;12.82;;;;;;;;;;5052485;28;20568;-53
2021/11/25 12:18:53;;;;;;;25.60;13.38;;;;;;;;;;5046327;28;20087;-56
2021/11/25 12:21:36;;;;;;;26.55;12.52;;;;;;;;;;5049634;28;20028;-56
2021/11/25 12:24:13;;;;;;;24.50;13.05;;;;;;;;;;5056126;28;20029;-57
2021/11/25 12:26:58;;;;;;;27.17;12.32;;;;;;;;;;5055739;28;20462;-57
2021/11/25 12:29:39;;;;;;;25.90;11.57;;;;;;;;;;5051631;28;20021;-55
2021/11/25 12:32:37;;;;;;;27.00;13.23;;;;;;;;;;5059358;28;20037;-56
2021/11/25 12:35:17;;;;;;;24.38;12.13;;;;;;;;;;5052742;28;20511;-58
2021/11/25 12:37:47;;;;;;;22.95;12.00;;;;;;;;;;5052830;28;20485;-58
2021/11/25 12:40:22;;;;;;;24.92;12.20;;;;;;;;;;5053007;28;20029;-56
2021/11/25 12:42:56;;;;;;;24.70;12.07;;;;;;;;;;5052678;28;20025;-58
2021/11/25 12:45:23;;;;;;;23.95;10.98;;;;;;;;;;5051356;28;20139;-56
2021/11/25 12:48:12;;;;;;;23.75;11.65;;;;;;;;;;5050036;28;20051;-58
2021/11/25 12:50:44;;;;;;;24.17;11.52;;;;;;;;;;5042018;28;20033;-58
2021/11/25 12:53:11;;;;;;;27.35;12.32;;;;;;;;;;5050312;28;20473;-58
2021/11/25 12:55:38;;;;;;;21.27;11.27;;;;;;;;;;5057856;28;20071;-58
2021/11/25 12:58:04;;;;;;;19.70;11.00;;;;;;;;;;5057083;28;20050;-57
2021/11/25 13:00:31;;;;;;;21.05;10.85;;;;;;;;;;5050985;28;20109;-57
2021/11/25 13:03:06;;;;;;;21.88;10.40;;;;;;;;;;5061116;28;20147;-58
2021/11/25 13:05:33;;;;;;;20.50;10.27;;;;;;;;;;5056312;28;20507;-58
2021/11/25 13:08:01;;;;;;;19.08;10.13;;;;;;;;;;5051696;28;20021;-58
2021/11/25 13:10:28;;;;;;;22.85;11.45;;;;;;;;;;5049910;28;20025;-58
2021/11/25 13:13:15;;;;;;;23.08;11.45;;;;;;;;;;5054066;28;20025;-53
2021/11/25 13:15:53;;;;;;;17.90;10.10;;;;;;;;;;5056477;28;20025;-56
2021/11/25 13:18:19;;;;;;;19.23;11.02;;;;;;;;;;5060653;28;20052;-56
2021/11/25 13:20:52;;;;;;;23.58;11.40;;;;;;;;;;5052368;28;20068;-58
2021/11/25 13:23:19;;;;;;;21.35;10.77;;;;;;;;;;5060596;28;20052;-56
2021/11/25 13:25:48;;;;;;;20.73;9.93;;;;;;;;;;5043690;28;20036;-56
2021/11/25 13:28:24;;;;;;;22.10;10.40;;;;;;;;;;5056259;28;20148;-56
2021/11/25 13:31:08;;;;;;;22.60;10.75;;;;;;;;;;5047270;28;20687;-58
2021/11/25 13:33:52;;;;;;;23.00;11.50;;;;;;;;;;5056440;28;20049;-57
2021/11/25 13:36:19;;;;;;;20.95;10.52;;;;;;;;;;5047067;28;20368;-57
2021/11/25 13:38:50;;;;;;;22.98;11.07;;;;;;;;;;5049724;28;20029;-58
2021/11/25 13:41:16;;;;;;;21.48;11.15;;;;;;;;;;5050800;28;20048;-57
2021/11/25 13:43:53;;;;;;;18.50;9.88;;;;;;;;;;5049889;28;20063;-58
2021/11/25 13:46:19;;;;;;;18.10;9.95;;;;;;;;;;5047917;28;20026;-58
2021/11/25 13:48:45;;;;;;;20.33;10.13;;;;;;;;;;5048921;28;20044;-57
2021/11/25 13:51:22;;;;;;;18.83;10.13;;;;;;;;;;5050692;28;20024;-57
2021/11/25 13:53:48;;;;;;;20.45;10.55;;;;;;;;;;5041460;28;20021;-57
2021/11/25 13:56:14;;;;;;;20.92;10.18;;;;;;;;;;5064728;28;20024;-56
2021/11/25 13:58:40;;;;;;;18.25;9.90;;;;;;;;;;5058185;28;20112;-57
2021/11/25 14:01:11;;;;;;;19.67;9.98;;;;;;;;;;5055360;28;20028;-58
2021/11/25 14:03:37;;;;;;;18.40;10.55;;;;;;;;;;5056823;28;20048;-56
2021/11/25 14:06:05;;;;;;;19.52;10.15;;;;;;;;;;5061992;28;20020;-57
2021/11/25 14:08:32;;;;;;;18.10;9.43;;;;;;;;;;5056722;28;20037;-56
2021/11/25 14:11:16;;;;;;;18.52;10.57;;;;;;;;;;5060695;28;20027;-57
2021/11/25 14:13:42;;;;;;;19.65;10.63;;;;;;;;;;5052463;28;20474;-58
2021/11/25 14:16:15;;;;;;;17.88;10.20;;;;;;;;;;5052148;28;20036;-57
2021/11/25 14:18:41;;;;;;;21.02;11.32;;;;;;;;;;5050541;28;20029;-58
2021/11/25 14:21:07;;;;;;;17.52;9.70;;;;;;;;;;5052501;28;20094;-56
2021/11/25 14:23:33;;;;;;;24.48;10.77;;;;;;;;;;5053720;28;20041;-57
2021/11/25 14:26:11;;;;;;;22.38;10.77;;;;;;;;;;5045360;28;20029;-54
2021/11/25 14:31:24;;;;;;;19.90;9.77;;;;;;;;;;5050316;28;20504;-58
2021/11/25 14:33:59;;;;;;;20.02;10.85;;;;;;;;;;5056177;28;20055;-56
2021/11/25 14:36:29;;;;;;;21.52;11.07;;;;;;;;;;5055370;28;20032;-56
2021/11/25 14:38:57;;;;;;;18.95;10.23;;;;;;;;;;5055682;28;20496;-56
2021/11/25 14:41:44;;;;;;;19.98;10.63;;;;;;;;;;5058729;28;20051;-54